Time;durP1;ratioP1;P1;durP2;ratioP2;P2;SDS_P1;SDS_P2;PMS_P1;PMS_P2;Temp;Humidity;BMP_temperature;BMP_pressure;BME280_temperature;BME280_humidity;BME280_pressure;Samples;Min_cycle;Max_cycle;Signal;HPM_P1;HPM_P2
2022/10/14 00:00:01;;;;;;;10.47;5.80;;;;;;;14.17;75.83;95005.88;5125605;28;20208;-82
2022/10/14 00:02:28;;;;;;;15.37;5.60;;;;;;;14.21;75.58;95000.97;5127264;28;20203;-81
2022/10/14 00:04:55;;;;;;;9.90;6.10;;;;;;;13.88;76.91;94998.97;5120260;28;20200;-84
2022/10/14 00:07:22;;;;;;;8.83;4.97;;;;;;;13.47;78.17;95007.78;5115016;28;20199;-82
2022/10/14 00:09:49;;;;;;;11.53;4.80;;;;;;;13.30;78.94;94998.22;5112491;28;20224;-81
2022/10/14 00:12:15;;;;;;;7.53;4.70;;;;;;;13.38;78.75;94992.66;5112544;28;20553;-81
2022/10/14 00:14:44;;;;;;;8.67;4.80;;;;;;;13.41;78.62;94990.41;5112900;28;20204;-82
2022/10/14 00:17:10;;;;;;;10.80;4.70;;;;;;;13.54;78.26;94981.53;5116370;28;20273;-80
2022/10/14 00:19:38;;;;;;;6.10;4.10;;;;;;;13.67;78.03;94986.53;5118238;28;20642;-81
2022/10/14 00:22:04;;;;;;;5.97;4.10;;;;;;;13.72;77.45;94980.59;5116129;28;20203;-80
2022/10/14 00:24:31;;;;;;;9.60;3.97;;;;;;;13.87;77.31;94988.78;5112487;28;20200;-81
2022/10/14 00:26:58;;;;;;;7.00;4.27;;;;;;;13.82;77.88;94981.63;5112173;28;20200;-81
2022/10/14 00:29:25;;;;;;;8.37;3.90;;;;;;;13.93;77.57;94977.41;5114353;28;20207;-81
2022/10/14 00:31:53;;;;;;;6.47;4.17;;;;;;;14.00;77.80;94975.44;5110643;28;20215;-81
2022/10/14 00:34:20;;;;;;;6.17;3.73;;;;;;;14.03;77.31;94981.00;5109675;28;20731;-82
2022/10/14 00:36:46;;;;;;;8.73;3.80;;;;;;;14.07;77.34;94979.53;5114991;28;20228;-83
2022/10/14 00:39:13;;;;;;;6.27;3.47;;;;;;;14.08;77.17;94981.09;5113471;28;20200;-81
2022/10/14 00:41:41;;;;;;;6.93;3.60;;;;;;;14.03;77.31;94983.63;5112959;28;20215;-82
2022/10/14 00:44:43;;;;;;;9.17;4.10;;;;;;;14.08;77.21;94969.88;5115933;28;20208;-81
2022/10/14 00:47:11;;;;;;;9.87;3.63;;;;;;;14.00;77.67;94965.78;5093126;28;20582;-84
2022/10/14 00:49:42;;;;;;;7.07;3.73;;;;;;;14.02;78.43;94968.19;5113958;28;20288;-81
2022/10/14 00:52:13;;;;;;;9.67;3.50;;;;;;;13.95;78.64;94973.53;5113584;28;20666;-83
2022/10/14 00:54:43;;;;;;;5.63;3.03;;;;;;;13.98;79.01;94975.69;5111094;28;20579;-77
2022/10/14 00:57:11;;;;;;;7.07;3.50;;;;;;;13.97;78.79;94971.47;5109348;28;20242;-75
2022/10/14 00:59:39;;;;;;;4.50;3.33;;;;;;;14.01;78.92;94964.78;5108014;28;20343;-76
2022/10/14 01:02:06;;;;;;;7.07;3.47;;;;;;;13.83;79.74;94961.50;5109146;28;20265;-75
2022/10/14 01:04:35;;;;;;;5.60;3.40;;;;;;;13.30;82.91;94953.84;5108949;28;20268;-75
2022/10/14 01:07:12;;;;;;;5.93;3.50;;;;;;;13.04;85.59;94965.50;5107758;28;20203;-75
2022/10/14 01:09:43;;;;;;;4.63;3.07;;;;;;;13.17;84.31;94960.06;5108710;28;20203;-75
2022/10/14 01:12:20;;;;;;;7.73;3.20;;;;;;;13.22;84.27;94954.19;5107729;28;20200;-74
2022/10/14 01:14:53;;;;;;;4.30;2.90;;;;;;;13.30;83.79;94946.03;5107349;28;20204;-75
2022/10/14 01:17:30;;;;;;;7.50;3.03;;;;;;;13.44;83.50;94940.34;5108660;28;20223;-74
2022/10/14 01:20:27;;;;;;;8.63;2.90;;;;;;;13.58;82.77;94935.66;5108853;28;20219;-74
2022/10/14 01:23:07;;;;;;;14.73;3.20;;;;;;;13.65;82.62;94937.13;5109309;28;20199;-75
2022/10/14 01:25:44;;;;;;;5.40;2.97;;;;;;;13.66;82.82;94924.84;5106050;28;20689;-74
2022/10/14 01:28:23;;;;;;;6.77;3.40;;;;;;;13.67;83.00;94928.28;5108839;28;20202;-74
2022/10/14 01:30:59;;;;;;;5.33;3.20;;;;;;;13.64;83.22;94924.31;5108146;28;21752;-74
2022/10/14 01:33:28;;;;;;;9.83;3.00;;;;;;;13.64;82.98;94919.06;5108735;28;20207;-74
2022/10/14 01:36:04;;;;;;;11.10;2.97;;;;;;;13.58;82.66;94918.19;5108221;28;20260;-75
2022/10/14 01:38:35;;;;;;;7.40;3.30;;;;;;;13.67;82.94;94929.06;5108374;28;20222;-74
2022/10/14 01:41:07;;;;;;;6.03;2.70;;;;;;;13.70;82.86;94927.81;5105325;28;20227;-75
2022/10/14 01:43:36;;;;;;;8.97;2.97;;;;;;;13.67;83.46;94923.84;5108217;28;20207;-75
2022/10/14 01:46:06;;;;;;;10.57;3.03;;;;;;;13.66;83.02;94917.03;5108728;28;20203;-75
2022/10/14 01:48:35;;;;;;;4.93;2.63;;;;;;;13.63;83.26;94918.28;5108253;28;20203;-75
2022/10/14 01:51:07;;;;;;;5.03;2.63;;;;;;;13.69;83.44;94915.75;5107468;28;20231;-75
2022/10/14 01:53:37;;;;;;;4.73;2.70;;;;;;;13.65;83.82;94918.03;5107841;28;20203;-75
2022/10/14 01:56:06;;;;;;;3.73;2.60;;;;;;;13.53;84.85;94912.84;5106383;28;20196;-75
2022/10/14 01:58:35;;;;;;;6.10;2.93;;;;;;;13.15;86.93;94915.16;5107996;28;20228;-74
2022/10/14 02:01:04;;;;;;;5.40;2.80;;;;;;;12.74;89.25;94915.19;5103978;28;20196;-74
2022/10/14 02:03:42;;;;;;;7.23;2.93;;;;;;;12.70;90.48;94927.09;5105787;28;20236;-79
2022/10/14 02:06:14;;;;;;;4.03;2.67;;;;;;;12.81;90.29;94926.31;5109493;28;20195;-80
2022/10/14 02:08:53;;;;;;;3.87;2.73;;;;;;;12.96;89.56;94926.66;5108354;28;20192;-80
2022/10/14 02:11:22;;;;;;;3.07;2.57;;;;;;;13.06;89.77;94922.50;5108442;28;20211;-80
2022/10/14 02:14:03;;;;;;;8.40;3.23;;;;;;;13.17;89.62;94920.94;5109139;28;20287;-79
2022/10/14 02:16:36;;;;;;;8.87;2.77;;;;;;;13.12;89.85;94909.59;5106577;28;20195;-80
2022/10/14 02:19:15;;;;;;;5.30;2.50;;;;;;;13.27;89.98;94915.16;5107235;28;20198;-81
2022/10/14 02:21:46;;;;;;;7.77;2.90;;;;;;;13.22;90.70;94923.66;5109305;28;20223;-81
2022/10/14 02:24:19;;;;;;;3.90;2.30;;;;;;;13.32;89.93;94917.88;5109885;28;20196;-82
2022/10/14 02:26:48;;;;;;;3.53;2.50;;;;;;;13.35;90.35;94915.59;5109590;28;20287;-80
2022/10/14 02:29:15;;;;;;;6.57;2.40;;;;;;;13.42;89.89;94903.19;5109978;28;20196;-83
2022/10/14 02:31:45;;;;;;;5.20;2.40;;;;;;;13.44;89.95;94906.41;5105977;28;20215;-81
2022/10/14 02:34:17;;;;;;;7.07;2.43;;;;;;;13.44;90.21;94900.38;5109632;28;20211;-80
2022/10/14 02:36:46;;;;;;;5.03;2.67;;;;;;;13.39;90.16;94900.28;5107723;28;20204;-81
2022/10/14 02:39:16;;;;;;;4.10;2.20;;;;;;;13.43;90.37;94904.00;5109098;28;20577;-80
2022/10/14 02:41:43;;;;;;;4.30;2.30;;;;;;;13.48;90.33;94904.09;5105734;28;20553;-81
2022/10/14 02:44:10;;;;;;;4.57;2.53;;;;;;;13.42;90.60;94902.44;5109206;28;20207;-81
2022/10/14 02:46:39;;;;;;;4.43;2.63;;;;;;;13.26;90.73;94905.72;5107959;28;20200;-80
2022/10/14 02:49:07;;;;;;;4.17;2.53;;;;;;;13.31;91.24;94896.19;5111512;28;20207;-80
2022/10/14 02:51:34;;;;;;;3.63;2.40;;;;;;;13.30;91.36;94897.22;5111004;28;20203;-81
2022/10/14 02:54:01;;;;;;;7.43;2.80;;;;;;;13.24;91.30;94897.31;5113723;28;20196;-81
2022/10/14 02:56:29;;;;;;;7.90;2.70;;;;;;;12.89;93.39;94898.09;5108266;28;20211;-80
2022/10/14 02:58:55;;;;;;;3.60;2.70;;;;;;;12.60;95.15;94900.75;5112928;28;20682;-80
2022/10/14 03:01:22;;;;;;;5.70;2.50;;;;;;;12.39;97.81;94899.47;5113232;28;20196;-79
2022/10/14 03:03:49;;;;;;;9.63;2.50;;;;;;;12.50;97.19;94902.09;5109763;28;20223;-81
2022/10/14 03:06:17;;;;;;;5.33;2.67;;;;;;;12.62;96.65;94903.94;5111776;28;20200;-81
2022/10/14 03:08:44;;;;;;;10.23;2.73;;;;;;;12.71;95.98;94898.19;5110938;28;20195;-80
2022/10/14 03:11:11;;;;;;;9.33;2.57;;;;;;;12.68;95.60;94879.56;5111346;28;20331;-81
2022/10/14 03:13:38;;;;;;;4.37;2.70;;;;;;;12.83;95.43;94898.19;5111959;28;20576;-81
2022/10/14 03:16:05;;;;;;;4.07;2.37;;;;;;;12.93;94.75;94896.59;5113091;28;20200;-80
2022/10/14 03:18:32;;;;;;;5.23;2.40;;;;;;;12.91;94.33;94893.44;5110040;28;20759;-81
2022/10/14 03:20:59;;;;;;;5.27;2.50;;;;;;;12.95;94.47;94891.97;5112806;28;20200;-81
2022/10/14 03:23:27;;;;;;;3.53;2.53;;;;;;;13.08;94.09;94894.38;5113606;28;20206;-80
2022/10/14 03:25:54;;;;;;;3.90;2.30;;;;;;;13.10;93.65;94888.94;5112204;28;20200;-79
2022/10/14 03:28:20;;;;;;;3.93;2.60;;;;;;;13.15;93.01;94886.44;5112311;28;20203;-81
2022/10/14 03:30:47;;;;;;;5.30;2.40;;;;;;;13.13;93.14;94893.69;5112692;28;20223;-81
2022/10/14 03:33:14;;;;;;;7.37;2.87;;;;;;;13.17;92.90;94889.59;5109347;28;20619;-75
2022/10/14 03:35:41;;;;;;;3.60;2.40;;;;;;;13.27;92.63;94892.44;5110461;28;20204;-77
2022/10/14 03:38:08;;;;;;;5.57;2.30;;;;;;;13.15;92.84;94894.28;5110828;28;20576;-73
2022/10/14 03:40:36;;;;;;;5.83;2.50;;;;;;;13.17;93.21;94892.22;5109709;28;20605;-74
2022/10/14 03:43:03;;;;;;;3.60;2.43;;;;;;;13.21;93.05;94897.78;5108847;28;20196;-74
2022/10/14 03:45:30;;;;;;;7.43;2.43;;;;;;;13.21;92.49;94888.16;5110088;28;20200;-74
2022/10/14 03:47:56;;;;;;;4.00;2.87;;;;;;;13.20;92.84;94894.38;5110269;28;20216;-74
2022/10/14 03:50:23;;;;;;;4.20;2.30;;;;;;;13.19;92.67;94892.78;5109726;28;20212;-74
2022/10/14 03:52:50;;;;;;;3.90;2.63;;;;;;;13.21;92.47;94887.34;5109951;28;20235;-74
2022/10/14 03:55:17;;;;;;;6.00;2.80;;;;;;;13.20;92.73;94888.34;5109902;28;20211;-74
2022/10/14 03:57:45;;;;;;;5.20;2.50;;;;;;;13.12;93.05;94886.09;5109178;28;20216;-75
2022/10/14 04:00:13;;;;;;;4.43;2.37;;;;;;;13.13;93.32;94892.91;5110005;28;20666;-74
2022/10/14 04:02:41;;;;;;;4.70;2.60;;;;;;;13.17;93.12;94887.00;5109234;28;20212;-74
2022/10/14 04:05:09;;;;;;;5.17;2.70;;;;;;;13.03;93.42;94883.00;5109574;28;20208;-75
2022/10/14 04:07:36;;;;;;;5.87;2.77;;;;;;;12.62;95.27;94883.88;5109776;28;20242;-75
2022/10/14 04:10:03;;;;;;;8.30;3.40;;;;;;;12.16;97.77;94871.53;5109831;28;20200;-74
2022/10/14 04:12:30;;;;;;;4.37;3.07;;;;;;;12.28;99.68;94872.34;5109624;28;20208;-75
2022/10/14 04:14:59;;;;;;;4.37;3.00;;;;;;;12.33;99.19;94874.28;5109892;28;20204;-75
2022/10/14 04:17:26;;;;;;;3.70;3.07;;;;;;;12.47;98.60;94866.03;5111015;28;20595;-82
2022/10/14 04:19:53;;;;;;;8.17;4.00;;;;;;;12.62;97.60;94873.44;5111924;28;20211;-82
2022/10/14 04:22:21;;;;;;;4.57;3.43;;;;;;;12.68;97.13;94872.53;5110211;28;20200;-82
2022/10/14 04:24:48;;;;;;;3.90;3.10;;;;;;;12.84;96.33;94863.28;5109412;28;20200;-83
2022/10/14 04:27:16;;;;;;;5.20;3.50;;;;;;;12.80;96.42;94862.94;5111906;28;20674;-83
2022/10/14 04:29:43;;;;;;;8.53;3.27;;;;;;;12.91;95.53;94872.56;5107028;28;20208;-81
2022/10/14 04:32:12;;;;;;;5.70;3.37;;;;;;;12.80;95.48;94875.16;5109252;28;20280;-82
2022/10/14 04:34:38;;;;;;;7.10;3.13;;;;;;;12.82;95.77;94866.09;5109224;28;20730;-83
2022/10/14 04:37:05;;;;;;;3.00;2.70;;;;;;;12.76;95.43;94874.03;5111430;28;20202;-81
2022/10/14 04:39:33;;;;;;;5.17;3.40;;;;;;;12.78;95.24;94869.38;5111134;28;20238;-80
2022/10/14 04:41:59;;;;;;;12.10;3.30;;;;;;;12.66;95.88;94864.16;5101539;28;20188;-75
2022/10/14 04:44:26;;;;;;;4.27;3.10;;;;;;;12.69;96.41;94866.31;5102542;28;20279;-76
2022/10/14 04:46:55;;;;;;;8.60;3.37;;;;;;;12.81;95.42;94867.09;5100214;28;20621;-76
2022/10/14 04:49:25;;;;;;;5.83;3.40;;;;;;;12.84;95.71;94863.28;5105774;28;20199;-76
2022/10/14 04:51:52;;;;;;;6.73;3.27;;;;;;;12.62;95.88;94860.41;5101036;28;20196;-74
2022/10/14 04:54:22;;;;;;;6.83;3.47;;;;;;;12.23;98.35;94855.81;5104727;28;20214;-74
2022/10/14 04:56:49;;;;;;;4.87;4.00;;;;;;;12.04;100.00;94856.84;5102887;28;20217;-76
2022/10/14 04:59:16;;;;;;;6.73;3.87;;;;;;;12.11;100.00;94858.38;5105781;28;20215;-80
2022/10/14 05:01:42;;;;;;;6.63;4.07;;;;;;;12.28;99.86;94864.53;5101821;28;20277;-77
2022/10/14 05:04:09;;;;;;;5.53;4.10;;;;;;;12.37;99.44;94860.59;5108037;28;20953;-74
2022/10/14 05:06:37;;;;;;;7.17;4.17;;;;;;;12.48;98.69;94859.81;5108456;28;20200;-75
2022/10/14 05:09:04;;;;;;;6.60;4.53;;;;;;;12.59;97.64;94854.84;5108526;28;20226;-76
2022/10/14 05:11:32;;;;;;;8.10;3.73;;;;;;;12.72;96.52;94857.25;5108878;28;20698;-73
2022/10/14 05:13:59;;;;;;;8.83;4.00;;;;;;;12.80;96.22;94854.31;5106021;28;20196;-72
2022/10/14 05:16:26;;;;;;;7.77;3.50;;;;;;;12.83;95.70;94848.63;5104594;28;20819;-73
2022/10/14 05:18:53;;;;;;;8.97;4.30;;;;;;;12.87;94.72;94855.75;5095150;28;20227;-73
2022/10/14 05:21:20;;;;;;;8.53;4.00;;;;;;;12.88;94.60;94841.72;5108423;28;20208;-72
2022/10/14 05:23:48;;;;;;;8.43;4.00;;;;;;;12.95;93.77;94846.81;5108588;28;20208;-72
2022/10/14 05:26:15;;;;;;;7.33;3.53;;;;;;;12.95;94.13;94847.63;5108548;28;20208;-73
2022/10/14 05:28:42;;;;;;;5.77;3.93;;;;;;;13.03;93.59;94849.88;5109020;28;20192;-72
2022/10/14 05:31:09;;;;;;;5.37;3.70;;;;;;;13.10;92.99;94851.63;5108301;28;20200;-73
2022/10/14 05:33:36;;;;;;;6.07;3.97;;;;;;;13.13;92.25;94848.56;5107807;28;20303;-74
2022/10/14 05:36:03;;;;;;;6.27;3.93;;;;;;;13.16;91.57;94848.88;5108840;28;20199;-72
2022/10/14 05:38:31;;;;;;;9.13;3.50;;;;;;;13.01;91.00;94846.72;5108491;28;20562;-72
2022/10/14 05:41:00;;;;;;;5.23;3.43;;;;;;;12.87;92.05;94860.97;5103970;28;20266;-72
2022/10/14 05:43:27;;;;;;;7.97;4.03;;;;;;;12.89;92.64;94855.56;5105317;28;20211;-75
2022/10/14 05:45:53;;;;;;;6.90;4.27;;;;;;;12.92;92.36;94870.75;5107063;28;20203;-74
2022/10/14 05:48:21;;;;;;;6.07;4.20;;;;;;;12.97;91.94;94861.22;5107574;28;20268;-74
2022/10/14 05:50:47;;;;;;;7.83;5.00;;;;;;;13.05;91.79;94866.09;5107416;28;20208;-74
2022/10/14 05:53:14;;;;;;;8.00;4.40;;;;;;;13.13;91.29;94870.19;5107056;28;20695;-74
2022/10/14 05:55:41;;;;;;;4.73;4.20;;;;;;;13.21;91.08;94867.25;5108086;28;20265;-74
2022/10/14 05:58:10;;;;;;;7.87;4.20;;;;;;;13.24;89.99;94866.81;5108468;28;20303;-73
2022/10/14 06:00:38;;;;;;;9.70;5.10;;;;;;;13.18;90.13;94883.38;5103692;28;20257;-73
2022/10/14 06:03:05;;;;;;;5.80;4.67;;;;;;;13.19;90.75;94878.97;5107755;28;20247;-73
2022/10/14 06:05:36;;;;;;;8.23;4.33;;;;;;;13.15;90.88;94886.44;5107860;28;20903;-73
2022/10/14 06:08:05;;;;;;;9.90;4.03;;;;;;;13.10;90.65;94881.13;5104675;28;20253;-73
2022/10/14 06:10:33;;;;;;;7.37;4.00;;;;;;;13.16;91.22;94884.63;5107780;28;20261;-74
2022/10/14 06:13:00;;;;;;;6.80;4.43;;;;;;;13.21;90.94;94889.94;5104439;28;20299;-74
2022/10/14 06:15:29;;;;;;;8.60;4.20;;;;;;;13.10;91.34;94890.75;5104071;28;20204;-73
2022/10/14 06:17:57;;;;;;;9.37;4.23;;;;;;;13.21;90.97;94892.56;5107982;28;20714;-73
2022/10/14 06:20:24;;;;;;;8.70;3.67;;;;;;;13.19;91.53;94894.63;5107208;28;20226;-73
2022/10/14 06:22:52;;;;;;;9.57;4.13;;;;;;;13.28;90.41;94888.81;5106673;28;20208;-74
2022/10/14 06:25:20;;;;;;;8.43;3.90;;;;;;;13.39;90.69;94897.66;5107810;28;20242;-83
2022/10/14 06:27:48;;;;;;;5.87;4.00;;;;;;;13.50;90.80;94896.84;5108374;28;20235;-84
2022/10/14 06:30:16;;;;;;;9.50;4.00;;;;;;;13.36;91.87;94895.50;5109130;28;20275;-82
2022/10/14 06:32:46;;;;;;;6.13;4.00;;;;;;;13.11;91.43;94900.16;5108620;28;20211;-81
2022/10/14 06:35:14;;;;;;;7.37;3.90;;;;;;;12.80;94.75;94893.41;5109799;28;20207;-84
2022/10/14 06:37:45;;;;;;;10.00;4.33;;;;;;;12.93;97.31;94904.44;5105935;28;20204;-79
2022/10/14 06:40:14;;;;;;;11.40;4.30;;;;;;;13.08;95.28;94904.00;5108228;28;20228;-83
2022/10/14 06:42:41;;;;;;;9.23;4.37;;;;;;;13.21;94.87;94901.19;5108950;28;20243;-81
2022/10/14 06:45:10;;;;;;;7.40;4.40;;;;;;;13.41;93.04;94901.63;5109311;28;20282;-81
2022/10/14 06:47:37;;;;;;;8.60;4.07;;;;;;;13.59;91.82;94906.69;5103898;28;20192;-82
2022/10/14 06:50:08;;;;;;;9.60;4.57;;;;;;;13.65;90.51;94900.56;5105789;28;20204;-81
2022/10/14 06:52:36;;;;;;;6.37;4.60;;;;;;;13.78;89.12;94899.50;5108055;28;20207;-81
2022/10/14 06:55:04;;;;;;;9.83;4.40;;;;;;;13.90;89.41;94907.31;5105646;28;20200;-81
2022/10/14 06:57:32;;;;;;;8.80;4.20;;;;;;;13.98;88.09;94894.69;5107382;28;20629;-80
2022/10/14 07:00:00;;;;;;;11.10;4.93;;;;;;;14.10;87.46;94898.06;5109066;28;20227;-81
2022/10/14 07:02:31;;;;;;;8.83;4.73;;;;;;;14.02;88.37;94897.63;5095807;28;20265;-82
2022/10/14 07:04:59;;;;;;;8.53;5.23;;;;;;;13.59;90.36;94893.63;5105907;28;20199;-81
2022/10/14 07:07:28;;;;;;;10.50;4.83;;;;;;;13.31;91.47;94904.00;5104639;28;20197;-81
2022/10/14 07:09:57;;;;;;;13.20;5.00;;;;;;;13.23;95.17;94893.91;5095296;28;20192;-81
2022/10/14 07:12:25;;;;;;;7.33;4.90;;;;;;;13.39;93.79;94892.44;5103630;28;20200;-82
2022/10/14 07:14:53;;;;;;;7.50;4.83;;;;;;;13.61;91.48;94901.25;5109329;28;21009;-81
2022/10/14 07:17:22;;;;;;;9.97;5.10;;;;;;;13.80;91.47;94891.44;5109913;28;20273;-82
2022/10/14 07:19:50;;;;;;;8.67;5.27;;;;;;;14.02;91.11;94897.63;5109164;28;20698;-82
2022/10/14 07:22:18;;;;;;;7.03;4.57;;;;;;;14.17;88.28;94895.28;5109601;28;20212;-82
2022/10/14 07:24:48;;;;;;;5.73;4.70;;;;;;;14.32;85.86;94899.97;5109139;28;20200;-83
2022/10/14 07:27:17;;;;;;;9.67;5.10;;;;;;;14.38;87.15;94902.50;5109041;28;20658;-82
2022/10/14 07:29:45;;;;;;;7.33;4.73;;;;;;;14.12;86.85;94889.97;5109325;28;20207;-82
2022/10/14 07:32:13;;;;;;;6.87;4.93;;;;;;;13.83;87.34;94899.59;5109634;28;20212;-82
2022/10/14 07:34:41;;;;;;;8.17;5.13;;;;;;;13.39;90.89;94882.78;5109818;28;20205;-82
2022/10/14 07:37:09;;;;;;;7.27;5.40;;;;;;;13.27;89.75;94894.25;5112911;28;20207;-81
2022/10/14 07:39:38;;;;;;;9.93;5.83;;;;;;;13.32;90.20;94889.94;5113063;28;20228;-80
2022/10/14 07:42:08;;;;;;;9.57;5.53;;;;;;;13.52;89.51;94882.53;5112580;28;20200;-80
2022/10/14 07:44:38;;;;;;;7.40;5.30;;;;;;;13.75;88.10;94892.13;5112645;28;20200;-81
2022/10/14 07:47:12;;;;;;;11.50;5.70;;;;;;;14.01;86.04;94896.03;5109811;28;20269;-82
2022/10/14 07:49:41;;;;;;;7.40;5.50;;;;;;;13.95;85.33;94887.31;5107511;28;20264;-80
2022/10/14 07:52:09;;;;;;;6.60;5.50;;;;;;;13.72;86.31;94883.97;5109001;28;20204;-80
2022/10/14 07:54:38;;;;;;;6.67;5.40;;;;;;;13.70;86.43;94884.22;5109997;28;20681;-81
2022/10/14 07:57:08;;;;;;;6.97;5.53;;;;;;;13.91;86.58;94888.78;5110397;28;20219;-81
2022/10/14 07:59:36;;;;;;;7.97;5.67;;;;;;;14.11;85.70;94891.00;5112138;28;20220;-79
2022/10/14 08:02:07;;;;;;;9.00;5.20;;;;;;;14.27;83.70;94890.25;5112291;28;20295;-80
2022/10/14 08:04:35;;;;;;;11.37;5.53;;;;;;;14.35;83.43;94894.31;5111715;28;20192;-81
2022/10/14 08:07:07;;;;;;;7.67;5.17;;;;;;;14.50;82.55;94892.78;5108134;28;20721;-78
2022/10/14 08:09:36;;;;;;;8.40;5.20;;;;;;;14.62;81.19;94888.28;5106854;28;20218;-78
2022/10/14 08:12:09;;;;;;;6.43;5.07;;;;;;;14.71;80.34;94891.28;5106374;28;20689;-82
2022/10/14 08:14:38;;;;;;;11.10;5.50;;;;;;;14.73;79.98;94886.59;5101724;28;20685;-78
2022/10/14 08:17:06;;;;;;;7.23;5.27;;;;;;;14.80;79.70;94895.09;5103294;28;20235;-78
2022/10/14 08:19:36;;;;;;;5.77;5.00;;;;;;;14.83;78.89;94893.84;5104705;28;20261;-78
2022/10/14 08:22:15;;;;;;;6.47;4.80;;;;;;;14.89;78.35;94898.88;5103635;28;20548;-76
2022/10/14 08:24:46;;;;;;;8.30;5.03;;;;;;;14.50;79.88;94898.00;5103240;28;20279;-76
2022/10/14 08:27:16;;;;;;;9.73;4.70;;;;;;;14.07;81.19;94900.34;5104120;28;20674;-76
2022/10/14 08:29:45;;;;;;;10.33;4.90;;;;;;;13.98;81.44;94896.50;5108410;28;20202;-74
2022/10/14 08:32:13;;;;;;;10.77;4.90;;;;;;;14.12;81.92;94898.59;5109488;28;20212;-75
2022/10/14 08:34:42;;;;;;;7.90;5.20;;;;;;;14.27;80.01;94895.47;5109116;28;20206;-74
2022/10/14 08:37:15;;;;;;;7.17;4.77;;;;;;;14.45;79.61;94886.66;5110140;28;20227;-81
2022/10/14 08:39:43;;;;;;;6.53;4.80;;;;;;;14.51;78.44;94894.38;5108342;28;20235;-78
2022/10/14 08:42:29;;;;;;;8.77;5.00;;;;;;;14.69;78.44;94896.75;5108018;28;20566;-75
2022/10/14 08:45:02;;;;;;;7.20;4.70;;;;;;;14.78;77.09;94900.56;5105349;28;20292;-80
2022/10/14 08:47:37;;;;;;;7.10;4.20;;;;;;;14.89;77.43;94901.50;5099144;28;20200;-79
2022/10/14 08:50:08;;;;;;;9.43;4.50;;;;;;;14.62;78.40;94903.97;5088275;28;20311;-80
2022/10/14 08:52:41;;;;;;;10.90;4.50;;;;;;;14.23;79.35;94898.81;5104327;28;20258;-82
2022/10/14 08:55:24;;;;;;;6.43;4.27;;;;;;;14.13;79.03;94899.41;5106191;28;20257;-75
2022/10/14 08:57:59;;;;;;;10.10;4.50;;;;;;;14.28;78.52;94894.47;5107127;28;20696;-74
2022/10/14 09:00:34;;;;;;;6.20;3.70;;;;;;;14.47;77.16;94895.06;5105055;28;20295;-73
2022/10/14 09:03:15;;;;;;;7.87;3.80;;;;;;;14.65;76.83;94898.28;5106187;28;20276;-73
2022/10/14 09:05:44;;;;;;;6.23;3.93;;;;;;;14.93;75.49;94896.59;5108537;28;20307;-74
2022/10/14 09:08:25;;;;;;;5.80;3.90;;;;;;;15.13;74.65;94899.53;5108179;28;20278;-74
2022/10/14 09:10:54;;;;;;;6.00;4.03;;;;;;;15.35;73.60;94893.28;5107652;28;20200;-74
2022/10/14 09:13:31;;;;;;;8.17;3.67;;;;;;;15.44;71.91;94891.06;5108819;28;20294;-74
2022/10/14 09:16:07;;;;;;;8.20;4.10;;;;;;;15.61;72.32;94896.31;5108388;28;20563;-74
2022/10/14 09:18:39;;;;;;;5.27;4.13;;;;;;;15.73;70.39;94895.13;5108152;28;20291;-74
2022/10/14 09:21:30;;;;;;;5.87;3.80;;;;;;;15.81;70.32;94889.47;5107252;28;20275;-72
2022/10/14 09:24:02;;;;;;;5.63;3.57;;;;;;;15.63;70.13;94888.97;5107880;28;20232;-74
2022/10/14 09:26:40;;;;;;;5.43;3.40;;;;;;;15.32;71.40;94879.91;5108063;28;20249;-74
2022/10/14 09:29:28;;;;;;;4.93;3.53;;;;;;;15.47;70.08;94881.97;5105374;28;20200;-74
2022/10/14 09:32:01;;;;;;;5.90;3.77;;;;;;;15.64;70.50;94891.34;5102616;28;20675;-74
2022/10/14 09:34:36;;;;;;;6.90;3.57;;;;;;;15.87;68.93;94880.63;5106761;28;20200;-74
2022/10/14 09:37:26;;;;;;;10.13;4.00;;;;;;;16.13;68.35;94881.69;5107208;28;20255;-74
2022/10/14 09:40:00;;;;;;;5.27;3.80;;;;;;;16.36;67.84;94889.28;5107552;28;20242;-74
2022/10/14 09:42:43;;;;;;;7.70;4.37;;;;;;;16.61;68.00;94880.91;5096111;28;20728;-73
2022/10/14 09:45:15;;;;;;;6.93;4.30;;;;;;;16.73;67.48;94884.16;5093901;28;20624;-77
2022/10/14 09:48:06;;;;;;;4.83;3.87;;;;;;;16.87;67.52;94892.41;5107053;28;20204;-76
2022/10/14 09:50:39;;;;;;;9.20;4.67;;;;;;;17.05;67.08;94880.72;5106185;28;20203;-77
2022/10/14 09:53:16;;;;;;;4.40;3.60;;;;;;;17.25;65.30;94881.66;5103604;28;20200;-77
2022/10/14 09:55:50;;;;;;;7.63;4.53;;;;;;;16.59;68.16;94883.00;5105566;28;20223;-77
2022/10/14 09:58:27;;;;;;;8.70;4.20;;;;;;;15.80;70.76;94868.75;5106714;28;20294;-76
2022/10/14 10:01:01;;;;;;;9.13;4.47;;;;;;;15.56;72.30;94883.13;5107146;28;20709;-76
2022/10/14 10:03:32;;;;;;;12.93;6.70;;;;;;;15.88;71.81;94871.72;5104000;28;20279;-78
2022/10/14 10:06:04;;;;;;;15.73;7.50;;;;;;;16.29;70.66;94885.28;5102988;28;20279;-77
2022/10/14 10:08:34;;;;;;;10.67;6.30;;;;;;;16.83;68.72;94878.97;5104501;28;20303;-79
2022/10/14 10:11:04;;;;;;;6.90;4.53;;;;;;;17.39;66.07;94877.53;5100813;28;20200;-79
2022/10/14 10:13:45;;;;;;;11.43;4.53;;;;;;;17.86;64.74;94877.53;5099524;28;20692;-79
2022/10/14 10:16:26;;;;;;;6.30;4.27;;;;;;;18.49;62.71;94883.50;5105582;28;20228;-78
2022/10/14 10:19:13;;;;;;;8.80;4.40;;;;;;;19.07;60.13;94884.84;5094422;28;20295;-89
2022/10/14 10:21:42;;;;;;;6.63;4.15;;;;;;;19.77;58.79;94881.31;5092547;28;20218;-88
2022/10/14 10:24:23;;;;;;;8.85;4.22;;;;;;;20.30;57.89;94883.22;5109098;28;20275;-79
2022/10/14 10:26:50;;;;;;;4.72;4.20;;;;;;;20.62;55.61;94885.41;5106037;28;20318;-79
2022/10/14 10:29:27;;;;;;;6.72;4.20;;;;;;;20.84;54.91;94874.41;5105064;28;20220;-78
2022/10/14 10:32:07;;;;;;;4.88;4.00;;;;;;;21.13;53.23;94872.59;5104595;28;20294;-79
2022/10/14 10:35:13;;;;;;;5.80;4.00;;;;;;;21.42;50.46;94872.59;5104288;28;20214;-74
2022/10/14 10:37:49;;;;;;;3.95;3.15;;;;;;;21.75;48.07;94868.28;5103142;28;20211;-74
2022/10/14 10:40:34;;;;;;;4.25;3.20;;;;;;;21.77;48.00;94874.09;5104761;28;20725;-75
2022/10/14 10:43:33;;;;;;;6.10;3.33;;;;;;;21.60;49.16;94865.81;5101024;28;20207;-76
2022/10/14 10:46:12;;;;;;;5.95;4.35;;;;;;;21.50;50.12;94861.41;5087030;28;20204;-76
2022/10/14 10:48:46;;;;;;;8.00;3.80;;;;;;;21.26;50.25;94857.97;5102885;28;20203;-74
2022/10/14 10:51:16;;;;;;;4.50;3.65;;;;;;;21.17;50.84;94856.97;5104068;28;20202;-75
2022/10/14 10:54:00;;;;;;;6.22;3.88;;;;;;;21.04;51.83;94858.38;5106220;28;20208;-74
2022/10/14 10:56:34;;;;;;;6.47;3.80;;;;;;;21.09;50.71;94860.22;5104331;28;20192;-74
2022/10/14 10:59:22;;;;;;;5.45;3.45;;;;;;;20.29;51.59;94849.94;5100894;28;20656;-75
2022/10/14 11:02:04;;;;;;;6.28;3.33;;;;;;;19.53;53.47;94848.69;5105428;28;20215;-75
2022/10/14 11:04:36;;;;;;;6.72;3.50;;;;;;;19.33;54.59;94851.34;5103310;28;20203;-74
2022/10/14 11:13:01;;;;;;;8.57;3.92;;;;;;;21.72;48.85;94840.53;5110466;28;20207;-75
2022/10/14 11:15:39;;;;;;;4.15;3.30;;;;;;;22.33;47.02;94842.44;5108237;28;20208;-74
2022/10/14 11:18:13;;;;;;;4.75;2.80;;;;;;;23.09;45.79;94852.66;5109407;28;20207;-75
2022/10/14 11:20:53;;;;;;;8.40;2.90;;;;;;;23.71;42.18;94838.84;5109168;28;20265;-76
2022/10/14 11:23:48;;;;;;;2.90;2.60;;;;;;;24.25;39.33;94845.19;5109375;28;20207;-74
2022/10/14 11:26:45;;;;;;;2.88;2.20;;;;;;;24.30;36.56;94846.97;5097627;28;20264;-76
2022/10/14 11:29:34;;;;;;;2.78;1.80;;;;;;;24.45;34.93;94836.78;5106820;28;20733;-76
2022/10/14 11:32:10;;;;;;;4.95;2.30;;;;;;;24.42;33.64;94831.28;5108460;28;20196;-75
2022/10/14 11:34:44;;;;;;;4.07;1.90;;;;;;;24.78;33.51;94826.72;5109246;28;20195;-76
2022/10/14 11:37:25;;;;;;;3.38;1.80;;;;;;;25.01;33.51;94823.00;5107859;28;20321;-76
2022/10/14 11:39:57;;;;;;;6.22;1.90;;;;;;;25.07;31.89;94832.44;5109775;28;20243;-76
2022/10/14 11:42:38;;;;;;;2.40;1.80;;;;;;;24.70;30.84;94835.44;5110462;28;20360;-77
2022/10/14 11:45:19;;;;;;;3.30;1.70;;;;;;;23.95;32.70;94820.06;5109586;28;20192;-75
2022/10/14 11:47:50;;;;;;;3.60;1.77;;;;;;;23.93;32.61;94824.84;5108938;28;20208;-75
2022/10/14 11:50:23;;;;;;;2.65;1.90;;;;;;;24.12;32.90;94814.94;5108681;28;20288;-74
2022/10/14 11:52:58;;;;;;;2.63;1.80;;;;;;;24.16;32.92;94810.59;5109555;28;20200;-76
2022/10/14 11:55:30;;;;;;;4.75;1.60;;;;;;;24.39;31.94;94810.63;5109820;28;20203;-75